sensor_id;sensor_type;location;lat;lon;timestamp;P1;durP1;ratioP1;P2;durP2;ratioP2
73113;SDS011;61301;51.956;5.876;2023-07-20T00:01:25;4.43;;;2.75;;
73113;SDS011;61301;51.956;5.876;2023-07-20T00:03:51;4.20;;;2.45;;
73113;SDS011;61301;51.956;5.876;2023-07-20T00:06:21;3.92;;;2.10;;
73113;SDS011;61301;51.956;5.876;2023-07-20T00:08:47;4.32;;;2.75;;
73113;SDS011;61301;51.956;5.876;2023-07-20T00:11:13;4.78;;;2.42;;
73113;SDS011;61301;51.956;5.876;2023-07-20T00:13:40;2.95;;;2.15;;
73113;SDS011;61301;51.956;5.876;2023-07-20T00:16:06;4.82;;;2.30;;
73113;SDS011;61301;51.956;5.876;2023-07-20T00:18:32;3.05;;;1.92;;
73113;SDS011;61301;51.956;5.876;2023-07-20T00:20:58;1.48;;;1.25;;
73113;SDS011;61301;51.956;5.876;2023-07-20T00:23:27;1.20;;;1.00;;
73113;SDS011;61301;51.956;5.876;2023-07-20T00:25:54;1.60;;;1.38;;
73113;SDS011;61301;51.956;5.876;2023-07-20T00:28:20;4.15;;;2.03;;
73113;SDS011;61301;51.956;5.876;2023-07-20T00:30:48;2.47;;;1.63;;
73113;SDS011;61301;51.956;5.876;2023-07-20T00:33:16;2.40;;;1.70;;
73113;SDS011;61301;51.956;5.876;2023-07-20T00:35:42;2.63;;;1.40;;
73113;SDS011;61301;51.956;5.876;2023-07-20T00:38:08;1.77;;;1.40;;
73113;SDS011;61301;51.956;5.876;2023-07-20T00:40:41;1.90;;;1.25;;
73113;SDS011;61301;51.956;5.876;2023-07-20T00:43:07;3.63;;;1.98;;
73113;SDS011;61301;51.956;5.876;2023-07-20T00:45:34;2.13;;;1.67;;
73113;SDS011;61301;51.956;5.876;2023-07-20T00:48:02;1.48;;;1.38;;
73113;SDS011;61301;51.956;5.876;2023-07-20T00:50:30;2.55;;;1.60;;
73113;SDS011;61301;51.956;5.876;2023-07-20T00:52:57;2.45;;;2.03;;
73113;SDS011;61301;51.956;5.876;2023-07-20T00:55:24;3.15;;;2.20;;
73113;SDS011;61301;51.956;5.876;2023-07-20T00:57:52;3.40;;;2.53;;
73113;SDS011;61301;51.956;5.876;2023-07-20T01:00:18;3.22;;;2.33;;
73113;SDS011;61301;51.956;5.876;2023-07-20T01:02:45;2.35;;;2.13;;
73113;SDS011;61301;51.956;5.876;2023-07-20T01:05:11;3.47;;;2.08;;
73113;SDS011;61301;51.956;5.876;2023-07-20T01:07:46;2.72;;;1.40;;
73113;SDS011;61301;51.956;5.876;2023-07-20T01:10:39;2.67;;;1.60;;
73113;SDS011;61301;51.956;5.876;2023-07-20T01:13:09;2.42;;;1.52;;
73113;SDS011;61301;51.956;5.876;2023-07-20T01:15:38;1.77;;;1.13;;
73113;SDS011;61301;51.956;5.876;2023-07-20T01:18:04;0.80;;;0.80;;
73113;SDS011;61301;51.956;5.876;2023-07-20T01:20:31;6.13;;;2.30;;
73113;SDS011;61301;51.956;5.876;2023-07-20T01:33:52;0.88;;;0.82;;
73113;SDS011;61301;51.956;5.876;2023-07-20T01:36:21;0.65;;;0.65;;
73113;SDS011;61301;51.956;5.876;2023-07-20T01:38:49;1.17;;;1.08;;
73113;SDS011;61301;51.956;5.876;2023-07-20T01:41:16;3.22;;;1.35;;
73113;SDS011;61301;51.956;5.876;2023-07-20T01:43:42;2.17;;;1.58;;
73113;SDS011;61301;51.956;5.876;2023-07-20T01:46:08;4.75;;;2.60;;
73113;SDS011;61301;51.956;5.876;2023-07-20T01:48:34;2.45;;;1.77;;
73113;SDS011;61301;51.956;5.876;2023-07-20T01:51:01;4.07;;;2.58;;
73113;SDS011;61301;51.956;5.876;2023-07-20T01:53:27;2.72;;;2.00;;
73113;SDS011;61301;51.956;5.876;2023-07-20T01:55:53;3.47;;;2.67;;
73113;SDS011;61301;51.956;5.876;2023-07-20T01:58:22;2.05;;;1.85;;
73113;SDS011;61301;51.956;5.876;2023-07-20T02:00:48;2.67;;;2.20;;
73113;SDS011;61301;51.956;5.876;2023-07-20T02:03:14;1.23;;;1.13;;
73113;SDS011;61301;51.956;5.876;2023-07-20T02:05:43;1.20;;;1.10;;
73113;SDS011;61301;51.956;5.876;2023-07-20T02:08:09;2.05;;;1.60;;
73113;SDS011;61301;51.956;5.876;2023-07-20T02:10:35;1.58;;;1.17;;
73113;SDS011;61301;51.956;5.876;2023-07-20T02:13:02;0.70;;;0.70;;
73113;SDS011;61301;51.956;5.876;2023-07-20T02:15:28;1.50;;;1.40;;
73113;SDS011;61301;51.956;5.876;2023-07-20T02:17:54;2.08;;;1.70;;
73113;SDS011;61301;51.956;5.876;2023-07-20T02:20:20;1.33;;;1.10;;
73113;SDS011;61301;51.956;5.876;2023-07-20T02:22:46;0.90;;;0.88;;
73113;SDS011;61301;51.956;5.876;2023-07-20T02:25:12;1.00;;;0.75;;
73113;SDS011;61301;51.956;5.876;2023-07-20T02:27:38;2.22;;;1.20;;
73113;SDS011;61301;51.956;5.876;2023-07-20T02:30:04;2.60;;;1.73;;
73113;SDS011;61301;51.956;5.876;2023-07-20T02:32:31;1.45;;;0.90;;
73113;SDS011;61301;51.956;5.876;2023-07-20T02:34:57;0.98;;;0.82;;
73113;SDS011;61301;51.956;5.876;2023-07-20T02:37:24;1.30;;;1.10;;
73113;SDS011;61301;51.956;5.876;2023-07-20T02:39:50;0.60;;;0.60;;
73113;SDS011;61301;51.956;5.876;2023-07-20T02:42:16;1.02;;;0.75;;
73113;SDS011;61301;51.956;5.876;2023-07-20T02:44:43;0.30;;;0.30;;
73113;SDS011;61301;51.956;5.876;2023-07-20T02:47:09;0.68;;;0.60;;
73113;SDS011;61301;51.956;5.876;2023-07-20T02:49:35;0.63;;;0.52;;
73113;SDS011;61301;51.956;5.876;2023-07-20T02:52:01;1.10;;;0.90;;
73113;SDS011;61301;51.956;5.876;2023-07-20T02:54:28;0.50;;;0.50;;
73113;SDS011;61301;51.956;5.876;2023-07-20T02:56:55;0.68;;;0.45;;
73113;SDS011;61301;51.956;5.876;2023-07-20T02:59:21;0.52;;;0.38;;
73113;SDS011;61301;51.956;5.876;2023-07-20T03:01:47;0.70;;;0.35;;
73113;SDS011;61301;51.956;5.876;2023-07-20T03:04:14;0.68;;;0.45;;
73113;SDS011;61301;51.956;5.876;2023-07-20T03:06:40;0.30;;;0.20;;
73113;SDS011;61301;51.956;5.876;2023-07-20T03:09:09;0.85;;;0.40;;
73113;SDS011;61301;51.956;5.876;2023-07-20T03:11:35;0.20;;;0.20;;
73113;SDS011;61301;51.956;5.876;2023-07-20T03:14:01;0.28;;;0.20;;
73113;SDS011;61301;51.956;5.876;2023-07-20T03:16:27;1.67;;;0.98;;
73113;SDS011;61301;51.956;5.876;2023-07-20T03:18:53;1.05;;;0.95;;
73113;SDS011;61301;51.956;5.876;2023-07-20T03:21:19;3.22;;;0.80;;
73113;SDS011;61301;51.956;5.876;2023-07-20T03:23:45;0.60;;;0.60;;
73113;SDS011;61301;51.956;5.876;2023-07-20T03:26:11;0.40;;;0.40;;
73113;SDS011;61301;51.956;5.876;2023-07-20T03:28:38;0.45;;;0.40;;
73113;SDS011;61301;51.956;5.876;2023-07-20T03:31:04;2.38;;;0.77;;
73113;SDS011;61301;51.956;5.876;2023-07-20T03:33:33;0.28;;;0.28;;
73113;SDS011;61301;51.956;5.876;2023-07-20T03:36:00;0.30;;;0.30;;
73113;SDS011;61301;51.956;5.876;2023-07-20T03:38:26;0.32;;;0.30;;
73113;SDS011;61301;51.956;5.876;2023-07-20T03:40:57;0.52;;;0.52;;
73113;SDS011;61301;51.956;5.876;2023-07-20T03:43:25;0.65;;;0.60;;
73113;SDS011;61301;51.956;5.876;2023-07-20T03:45:52;0.65;;;0.55;;
73113;SDS011;61301;51.956;5.876;2023-07-20T03:48:19;1.25;;;0.98;;
73113;SDS011;61301;51.956;5.876;2023-07-20T03:50:47;1.00;;;0.77;;
73113;SDS011;61301;51.956;5.876;2023-07-20T03:53:14;0.70;;;0.70;;
73113;SDS011;61301;51.956;5.876;2023-07-20T03:55:44;0.88;;;0.60;;
73113;SDS011;61301;51.956;5.876;2023-07-20T03:58:14;0.43;;;0.43;;
73113;SDS011;61301;51.956;5.876;2023-07-20T04:00:44;0.28;;;0.28;;
73113;SDS011;61301;51.956;5.876;2023-07-20T04:03:11;0.30;;;0.30;;
73113;SDS011;61301;51.956;5.876;2023-07-20T04:05:37;1.00;;;0.70;;
73113;SDS011;61301;51.956;5.876;2023-07-20T04:08:03;0.80;;;0.65;;
73113;SDS011;61301;51.956;5.876;2023-07-20T04:10:29;0.82;;;0.63;;
73113;SDS011;61301;51.956;5.876;2023-07-20T04:12:56;0.65;;;0.47;;
73113;SDS011;61301;51.956;5.876;2023-07-20T04:15:22;0.50;;;0.50;;
73113;SDS011;61301;51.956;5.876;2023-07-20T04:17:48;0.52;;;0.30;;
73113;SDS011;61301;51.956;5.876;2023-07-20T04:20:14;2.58;;;0.82;;
73113;SDS011;61301;51.956;5.876;2023-07-20T04:22:40;0.85;;;0.60;;
73113;SDS011;61301;51.956;5.876;2023-07-20T04:25:09;0.90;;;0.60;;
73113;SDS011;61301;51.956;5.876;2023-07-20T04:27:36;1.60;;;1.08;;
73113;SDS011;61301;51.956;5.876;2023-07-20T04:30:02;0.63;;;0.60;;
73113;SDS011;61301;51.956;5.876;2023-07-20T04:32:29;0.35;;;0.30;;
73113;SDS011;61301;51.956;5.876;2023-07-20T04:34:59;0.43;;;0.43;;
73113;SDS011;61301;51.956;5.876;2023-07-20T04:37:25;0.70;;;0.60;;
73113;SDS011;61301;51.956;5.876;2023-07-20T04:39:51;4.32;;;1.80;;
73113;SDS011;61301;51.956;5.876;2023-07-20T04:42:17;1.95;;;1.33;;
73113;SDS011;61301;51.956;5.876;2023-07-20T04:44:43;1.75;;;0.80;;
73113;SDS011;61301;51.956;5.876;2023-07-20T04:47:10;1.85;;;1.55;;
73113;SDS011;61301;51.956;5.876;2023-07-20T04:49:38;0.68;;;0.68;;
73113;SDS011;61301;51.956;5.876;2023-07-20T04:52:05;0.70;;;0.70;;
73113;SDS011;61301;51.956;5.876;2023-07-20T04:54:31;0.82;;;0.70;;
73113;SDS011;61301;51.956;5.876;2023-07-20T04:56:57;0.73;;;0.60;;
73113;SDS011;61301;51.956;5.876;2023-07-20T04:59:24;0.35;;;0.35;;
73113;SDS011;61301;51.956;5.876;2023-07-20T05:01:50;0.75;;;0.50;;
73113;SDS011;61301;51.956;5.876;2023-07-20T05:04:17;0.50;;;0.50;;
73113;SDS011;61301;51.956;5.876;2023-07-20T05:06:43;0.47;;;0.47;;
73113;SDS011;61301;51.956;5.876;2023-07-20T05:09:09;0.93;;;0.90;;
73113;SDS011;61301;51.956;5.876;2023-07-20T05:11:35;1.02;;;0.40;;
73113;SDS011;61301;51.956;5.876;2023-07-20T05:14:01;0.80;;;0.80;;
73113;SDS011;61301;51.956;5.876;2023-07-20T05:16:28;0.68;;;0.60;;
73113;SDS011;61301;51.956;5.876;2023-07-20T05:18:59;2.70;;;1.27;;
73113;SDS011;61301;51.956;5.876;2023-07-20T05:21:25;1.13;;;0.60;;
73113;SDS011;61301;51.956;5.876;2023-07-20T05:23:52;1.40;;;0.80;;
73113;SDS011;61301;51.956;5.876;2023-07-20T05:26:18;0.80;;;0.50;;
73113;SDS011;61301;51.956;5.876;2023-07-20T05:28:44;0.52;;;0.28;;
73113;SDS011;61301;51.956;5.876;2023-07-20T05:31:10;0.30;;;0.30;;
73113;SDS011;61301;51.956;5.876;2023-07-20T05:33:35;0.82;;;0.82;;
73113;SDS011;61301;51.956;5.876;2023-07-20T05:36:01;0.35;;;0.35;;
73113;SDS011;61301;51.956;5.876;2023-07-20T05:38:27;0.57;;;0.57;;
73113;SDS011;61301;51.956;5.876;2023-07-20T05:40:58;1.00;;;0.70;;
73113;SDS011;61301;51.956;5.876;2023-07-20T05:43:26;0.75;;;0.70;;
73113;SDS011;61301;51.956;5.876;2023-07-20T05:45:52;1.88;;;1.25;;
73113;SDS011;61301;51.956;5.876;2023-07-20T05:48:19;1.60;;;1.08;;
73113;SDS011;61301;51.956;5.876;2023-07-20T05:50:45;1.20;;;0.85;;
73113;SDS011;61301;51.956;5.876;2023-07-20T05:53:11;0.40;;;0.40;;
73113;SDS011;61301;51.956;5.876;2023-07-20T05:55:37;1.17;;;0.63;;
73113;SDS011;61301;51.956;5.876;2023-07-20T05:58:04;0.93;;;0.40;;
73113;SDS011;61301;51.956;5.876;2023-07-20T06:00:30;0.68;;;0.60;;
73113;SDS011;61301;51.956;5.876;2023-07-20T06:02:56;2.15;;;0.80;;
73113;SDS011;61301;51.956;5.876;2023-07-20T06:05:22;0.70;;;0.40;;
73113;SDS011;61301;51.956;5.876;2023-07-20T06:07:49;1.35;;;0.60;;
73113;SDS011;61301;51.956;5.876;2023-07-20T06:10:15;1.20;;;0.50;;
73113;SDS011;61301;51.956;5.876;2023-07-20T06:12:41;0.95;;;0.73;;
73113;SDS011;61301;51.956;5.876;2023-07-20T06:15:23;2.75;;;0.70;;
73113;SDS011;61301;51.956;5.876;2023-07-20T06:18:01;0.88;;;0.60;;
73113;SDS011;61301;51.956;5.876;2023-07-20T06:20:27;1.60;;;0.70;;
73113;SDS011;61301;51.956;5.876;2023-07-20T06:22:56;0.75;;;0.30;;
73113;SDS011;61301;51.956;5.876;2023-07-20T06:25:22;0.30;;;0.20;;
73113;SDS011;61301;51.956;5.876;2023-07-20T06:27:49;0.57;;;0.50;;
73113;SDS011;61301;51.956;5.876;2023-07-20T06:30:35;1.05;;;0.60;;
73113;SDS011;61301;51.956;5.876;2023-07-20T06:33:01;0.80;;;0.38;;
73113;SDS011;61301;51.956;5.876;2023-07-20T06:35:27;0.28;;;0.28;;
73113;SDS011;61301;51.956;5.876;2023-07-20T06:37:53;0.93;;;0.70;;
73113;SDS011;61301;51.956;5.876;2023-07-20T06:40:19;0.80;;;0.70;;
73113;SDS011;61301;51.956;5.876;2023-07-20T06:42:46;0.30;;;0.30;;
73113;SDS011;61301;51.956;5.876;2023-07-20T06:45:12;0.35;;;0.32;;
73113;SDS011;61301;51.956;5.876;2023-07-20T06:47:38;0.80;;;0.30;;
73113;SDS011;61301;51.956;5.876;2023-07-20T06:50:08;0.70;;;0.55;;
73113;SDS011;61301;51.956;5.876;2023-07-20T06:52:35;0.98;;;0.30;;
73113;SDS011;61301;51.956;5.876;2023-07-20T06:55:02;0.65;;;0.28;;
73113;SDS011;61301;51.956;5.876;2023-07-20T06:57:29;0.43;;;0.20;;
73113;SDS011;61301;51.956;5.876;2023-07-20T06:59:55;0.50;;;0.32;;
73113;SDS011;61301;51.956;5.876;2023-07-20T07:02:21;0.70;;;0.30;;
73113;SDS011;61301;51.956;5.876;2023-07-20T07:04:47;0.82;;;0.50;;
73113;SDS011;61301;51.956;5.876;2023-07-20T07:07:16;1.10;;;0.50;;
73113;SDS011;61301;51.956;5.876;2023-07-20T07:09:42;1.52;;;0.60;;
73113;SDS011;61301;51.956;5.876;2023-07-20T07:12:08;0.70;;;0.30;;
73113;SDS011;61301;51.956;5.876;2023-07-20T07:14:34;1.42;;;0.40;;
73113;SDS011;61301;51.956;5.876;2023-07-20T07:17:00;0.88;;;0.22;;
73113;SDS011;61301;51.956;5.876;2023-07-20T07:19:26;1.08;;;0.32;;
73113;SDS011;61301;51.956;5.876;2023-07-20T07:21:52;0.40;;;0.40;;
73113;SDS011;61301;51.956;5.876;2023-07-20T07:24:19;0.43;;;0.35;;
73113;SDS011;61301;51.956;5.876;2023-07-20T07:26:44;0.57;;;0.30;;
73113;SDS011;61301;51.956;5.876;2023-07-20T07:29:10;0.75;;;0.32;;
73113;SDS011;61301;51.956;5.876;2023-07-20T07:31:36;0.70;;;0.50;;
73113;SDS011;61301;51.956;5.876;2023-07-20T07:34:04;0.52;;;0.30;;
73113;SDS011;61301;51.956;5.876;2023-07-20T07:36:31;0.20;;;0.20;;
73113;SDS011;61301;51.956;5.876;2023-07-20T07:38:57;1.90;;;0.50;;
73113;SDS011;61301;51.956;5.876;2023-07-20T07:41:23;0.68;;;0.50;;
73113;SDS011;61301;51.956;5.876;2023-07-20T07:43:49;1.20;;;0.35;;
73113;SDS011;61301;51.956;5.876;2023-07-20T07:46:15;0.75;;;0.38;;
73113;SDS011;61301;51.956;5.876;2023-07-20T07:48:42;0.32;;;0.30;;
73113;SDS011;61301;51.956;5.876;2023-07-20T07:51:07;0.50;;;0.30;;
73113;SDS011;61301;51.956;5.876;2023-07-20T07:53:34;2.05;;;0.55;;
73113;SDS011;61301;51.956;5.876;2023-07-20T07:56:02;1.80;;;0.60;;
73113;SDS011;61301;51.956;5.876;2023-07-20T07:58:29;0.60;;;0.40;;
73113;SDS011;61301;51.956;5.876;2023-07-20T08:00:55;0.60;;;0.30;;
73113;SDS011;61301;51.956;5.876;2023-07-20T08:03:21;0.77;;;0.30;;
73113;SDS011;61301;51.956;5.876;2023-07-20T08:05:49;0.30;;;0.30;;
73113;SDS011;61301;51.956;5.876;2023-07-20T08:08:15;1.52;;;0.50;;
73113;SDS011;61301;51.956;5.876;2023-07-20T08:10:42;1.77;;;0.40;;
73113;SDS011;61301;51.956;5.876;2023-07-20T08:13:08;0.22;;;0.20;;
73113;SDS011;61301;51.956;5.876;2023-07-20T08:15:34;2.22;;;0.40;;
73113;SDS011;61301;51.956;5.876;2023-07-20T08:18:00;0.70;;;0.20;;
73113;SDS011;61301;51.956;5.876;2023-07-20T08:20:26;0.15;;;0.15;;
73113;SDS011;61301;51.956;5.876;2023-07-20T08:22:53;0.10;;;0.10;;
73113;SDS011;61301;51.956;5.876;2023-07-20T08:25:20;0.20;;;0.15;;
73113;SDS011;61301;51.956;5.876;2023-07-20T08:27:47;1.70;;;0.55;;
73113;SDS011;61301;51.956;5.876;2023-07-20T08:30:13;0.85;;;0.47;;
73113;SDS011;61301;51.956;5.876;2023-07-20T08:32:39;0.40;;;0.30;;
73113;SDS011;61301;51.956;5.876;2023-07-20T08:35:06;0.30;;;0.30;;
73113;SDS011;61301;51.956;5.876;2023-07-20T08:37:32;1.23;;;0.30;;
73113;SDS011;61301;51.956;5.876;2023-07-20T08:39:58;0.32;;;0.22;;
73113;SDS011;61301;51.956;5.876;2023-07-20T08:42:24;0.30;;;0.30;;
73113;SDS011;61301;51.956;5.876;2023-07-20T08:44:51;1.23;;;0.35;;
73113;SDS011;61301;51.956;5.876;2023-07-20T08:47:18;1.80;;;0.68;;
73113;SDS011;61301;51.956;5.876;2023-07-20T08:49:48;0.82;;;0.43;;
73113;SDS011;61301;51.956;5.876;2023-07-20T08:52:14;0.30;;;0.30;;
73113;SDS011;61301;51.956;5.876;2023-07-20T08:54:41;0.47;;;0.20;;
73113;SDS011;61301;51.956;5.876;2023-07-20T08:57:07;4.18;;;0.40;;
73113;SDS011;61301;51.956;5.876;2023-07-20T08:59:34;0.80;;;0.43;;
73113;SDS011;61301;51.956;5.876;2023-07-20T09:02:02;1.75;;;0.30;;
73113;SDS011;61301;51.956;5.876;2023-07-20T09:04:31;0.35;;;0.28;;
73113;SDS011;61301;51.956;5.876;2023-07-20T09:06:57;0.40;;;0.30;;
73113;SDS011;61301;51.956;5.876;2023-07-20T09:09:23;0.40;;;0.40;;
73113;SDS011;61301;51.956;5.876;2023-07-20T09:11:49;0.35;;;0.20;;
73113;SDS011;61301;51.956;5.876;2023-07-20T09:14:15;0.85;;;0.50;;
73113;SDS011;61301;51.956;5.876;2023-07-20T09:16:54;0.28;;;0.28;;
73113;SDS011;61301;51.956;5.876;2023-07-20T09:19:21;1.50;;;0.47;;
73113;SDS011;61301;51.956;5.876;2023-07-20T09:21:48;1.20;;;0.30;;
73113;SDS011;61301;51.956;5.876;2023-07-20T09:24:15;1.48;;;0.50;;
73113;SDS011;61301;51.956;5.876;2023-07-20T09:26:43;0.55;;;0.40;;
73113;SDS011;61301;51.956;5.876;2023-07-20T09:29:10;0.68;;;0.40;;
73113;SDS011;61301;51.956;5.876;2023-07-20T09:31:37;0.30;;;0.30;;
73113;SDS011;61301;51.956;5.876;2023-07-20T09:34:05;0.75;;;0.60;;
73113;SDS011;61301;51.956;5.876;2023-07-20T09:36:35;0.73;;;0.45;;
73113;SDS011;61301;51.956;5.876;2023-07-20T09:39:04;0.40;;;0.38;;
73113;SDS011;61301;51.956;5.876;2023-07-20T09:41:39;4.03;;;0.50;;
73113;SDS011;61301;51.956;5.876;2023-07-20T09:44:07;0.55;;;0.40;;
73113;SDS011;61301;51.956;5.876;2023-07-20T09:46:45;0.57;;;0.30;;
73113;SDS011;61301;51.956;5.876;2023-07-20T09:49:12;0.60;;;0.40;;
73113;SDS011;61301;51.956;5.876;2023-07-20T09:51:39;0.52;;;0.40;;
73113;SDS011;61301;51.956;5.876;2023-07-20T09:54:06;0.95;;;0.45;;
73113;SDS011;61301;51.956;5.876;2023-07-20T09:56:33;0.60;;;0.40;;
73113;SDS011;61301;51.956;5.876;2023-07-20T09:59:00;0.77;;;0.30;;
73113;SDS011;61301;51.956;5.876;2023-07-20T10:01:26;0.85;;;0.45;;
73113;SDS011;61301;51.956;5.876;2023-07-20T10:03:53;1.02;;;0.63;;
73113;SDS011;61301;51.956;5.876;2023-07-20T10:06:23;0.90;;;0.40;;
73113;SDS011;61301;51.956;5.876;2023-07-20T10:08:52;0.50;;;0.40;;
73113;SDS011;61301;51.956;5.876;2023-07-20T10:11:21;0.40;;;0.30;;
73113;SDS011;61301;51.956;5.876;2023-07-20T10:13:53;0.20;;;0.20;;
73113;SDS011;61301;51.956;5.876;2023-07-20T10:16:22;1.13;;;0.60;;
73113;SDS011;61301;51.956;5.876;2023-07-20T10:18:58;2.40;;;0.60;;
73113;SDS011;61301;51.956;5.876;2023-07-20T10:21:37;0.85;;;0.30;;
73113;SDS011;61301;51.956;5.876;2023-07-20T10:24:07;0.90;;;0.30;;
73113;SDS011;61301;51.956;5.876;2023-07-20T10:26:35;1.15;;;0.40;;
73113;SDS011;61301;51.956;5.876;2023-07-20T10:29:01;0.57;;;0.30;;
73113;SDS011;61301;51.956;5.876;2023-07-20T10:31:28;0.20;;;0.20;;
73113;SDS011;61301;51.956;5.876;2023-07-20T10:33:58;1.27;;;0.35;;
73113;SDS011;61301;51.956;5.876;2023-07-20T10:36:25;1.50;;;0.45;;
73113;SDS011;61301;51.956;5.876;2023-07-20T10:38:53;1.33;;;0.60;;
73113;SDS011;61301;51.956;5.876;2023-07-20T10:41:33;1.92;;;0.40;;
73113;SDS011;61301;51.956;5.876;2023-07-20T10:44:04;0.80;;;0.40;;
73113;SDS011;61301;51.956;5.876;2023-07-20T10:49:09;0.65;;;0.43;;
73113;SDS011;61301;51.956;5.876;2023-07-20T10:51:42;1.45;;;0.50;;
73113;SDS011;61301;51.956;5.876;2023-07-20T10:56:41;0.82;;;0.50;;
73113;SDS011;61301;51.956;5.876;2023-07-20T11:01:49;0.40;;;0.20;;
73113;SDS011;61301;51.956;5.876;2023-07-20T11:04:37;0.77;;;0.40;;
73113;SDS011;61301;51.956;5.876;2023-07-20T11:07:10;0.85;;;0.40;;
73113;SDS011;61301;51.956;5.876;2023-07-20T11:10:12;0.50;;;0.30;;
73113;SDS011;61301;51.956;5.876;2023-07-20T11:12:39;1.95;;;0.73;;
73113;SDS011;61301;51.956;5.876;2023-07-20T11:15:05;0.73;;;0.40;;
73113;SDS011;61301;51.956;5.876;2023-07-20T11:17:32;0.77;;;0.50;;
73113;SDS011;61301;51.956;5.876;2023-07-20T11:19:59;0.88;;;0.47;;
73113;SDS011;61301;51.956;5.876;2023-07-20T11:22:30;0.55;;;0.40;;
73113;SDS011;61301;51.956;5.876;2023-07-20T11:24:57;0.52;;;0.38;;
73113;SDS011;61301;51.956;5.876;2023-07-20T11:27:23;0.77;;;0.60;;
73113;SDS011;61301;51.956;5.876;2023-07-20T11:29:50;0.52;;;0.40;;
73113;SDS011;61301;51.956;5.876;2023-07-20T11:32:22;1.67;;;0.40;;
73113;SDS011;61301;51.956;5.876;2023-07-20T11:34:49;1.92;;;0.55;;
73113;SDS011;61301;51.956;5.876;2023-07-20T11:37:15;1.65;;;0.50;;
73113;SDS011;61301;51.956;5.876;2023-07-20T11:39:42;0.75;;;0.32;;
73113;SDS011;61301;51.956;5.876;2023-07-20T11:42:08;0.57;;;0.38;;
73113;SDS011;61301;51.956;5.876;2023-07-20T11:44:34;0.40;;;0.40;;
73113;SDS011;61301;51.956;5.876;2023-07-20T11:47:01;1.00;;;0.43;;
73113;SDS011;61301;51.956;5.876;2023-07-20T11:49:30;0.80;;;0.38;;
73113;SDS011;61301;51.956;5.876;2023-07-20T11:52:00;2.30;;;0.50;;
73113;SDS011;61301;51.956;5.876;2023-07-20T11:54:26;0.73;;;0.40;;
73113;SDS011;61301;51.956;5.876;2023-07-20T11:56:53;0.60;;;0.30;;
73113;SDS011;61301;51.956;5.876;2023-07-20T11:59:21;0.80;;;0.35;;
73113;SDS011;61301;51.956;5.876;2023-07-20T12:01:47;0.50;;;0.40;;
73113;SDS011;61301;51.956;5.876;2023-07-20T12:04:13;0.60;;;0.50;;
73113;SDS011;61301;51.956;5.876;2023-07-20T12:06:39;0.70;;;0.30;;
73113;SDS011;61301;51.956;5.876;2023-07-20T12:09:05;0.30;;;0.30;;
73113;SDS011;61301;51.956;5.876;2023-07-20T12:11:35;0.70;;;0.40;;
73113;SDS011;61301;51.956;5.876;2023-07-20T12:14:03;1.00;;;0.30;;
73113;SDS011;61301;51.956;5.876;2023-07-20T12:16:31;0.70;;;0.50;;
73113;SDS011;61301;51.956;5.876;2023-07-20T12:21:34;1.42;;;0.50;;
73113;SDS011;61301;51.956;5.876;2023-07-20T12:24:04;0.52;;;0.45;;
73113;SDS011;61301;51.956;5.876;2023-07-20T12:26:30;1.42;;;0.30;;
73113;SDS011;61301;51.956;5.876;2023-07-20T12:28:57;0.50;;;0.40;;
73113;SDS011;61301;51.956;5.876;2023-07-20T12:31:24;1.88;;;0.70;;
73113;SDS011;61301;51.956;5.876;2023-07-20T12:33:50;0.57;;;0.50;;
73113;SDS011;61301;51.956;5.876;2023-07-20T12:36:17;1.10;;;0.40;;
73113;SDS011;61301;51.956;5.876;2023-07-20T12:38:43;0.43;;;0.30;;
73113;SDS011;61301;51.956;5.876;2023-07-20T12:41:10;0.90;;;0.50;;
73113;SDS011;61301;51.956;5.876;2023-07-20T12:43:41;1.17;;;0.25;;
73113;SDS011;61301;51.956;5.876;2023-07-20T12:46:08;0.82;;;0.70;;
73113;SDS011;61301;51.956;5.876;2023-07-20T12:48:35;2.30;;;0.40;;
73113;SDS011;61301;51.956;5.876;2023-07-20T12:51:02;0.93;;;0.45;;
73113;SDS011;61301;51.956;5.876;2023-07-20T12:53:30;0.75;;;0.50;;
73113;SDS011;61301;51.956;5.876;2023-07-20T12:55:58;1.05;;;0.47;;
73113;SDS011;61301;51.956;5.876;2023-07-20T12:58:24;0.63;;;0.30;;
73113;SDS011;61301;51.956;5.876;2023-07-20T13:00:51;0.20;;;0.20;;
73113;SDS011;61301;51.956;5.876;2023-07-20T13:03:17;0.40;;;0.20;;
73113;SDS011;61301;51.956;5.876;2023-07-20T13:05:45;0.25;;;0.25;;
73113;SDS011;61301;51.956;5.876;2023-07-20T13:08:11;0.90;;;0.50;;
73113;SDS011;61301;51.956;5.876;2023-07-20T13:10:38;0.93;;;0.60;;
73113;SDS011;61301;51.956;5.876;2023-07-20T13:13:05;1.08;;;0.50;;
73113;SDS011;61301;51.956;5.876;2023-07-20T13:15:32;0.85;;;0.40;;
73113;SDS011;61301;51.956;5.876;2023-07-20T13:17:58;1.52;;;0.28;;
73113;SDS011;61301;51.956;5.876;2023-07-20T13:20:26;0.43;;;0.20;;
73113;SDS011;61301;51.956;5.876;2023-07-20T13:22:53;0.40;;;0.40;;
73113;SDS011;61301;51.956;5.876;2023-07-20T13:25:19;0.68;;;0.30;;
73113;SDS011;61301;51.956;5.876;2023-07-20T13:27:45;1.35;;;0.45;;
73113;SDS011;61301;51.956;5.876;2023-07-20T13:30:11;0.30;;;0.30;;
73113;SDS011;61301;51.956;5.876;2023-07-20T13:32:45;0.35;;;0.20;;
73113;SDS011;61301;51.956;5.876;2023-07-20T13:35:11;0.73;;;0.28;;
73113;SDS011;61301;51.956;5.876;2023-07-20T13:37:38;0.55;;;0.50;;
73113;SDS011;61301;51.956;5.876;2023-07-20T13:40:04;0.85;;;0.50;;
73113;SDS011;61301;51.956;5.876;2023-07-20T13:42:31;0.73;;;0.50;;
73113;SDS011;61301;51.956;5.876;2023-07-20T13:44:58;0.30;;;0.30;;
73113;SDS011;61301;51.956;5.876;2023-07-20T13:47:25;0.50;;;0.47;;
73113;SDS011;61301;51.956;5.876;2023-07-20T13:49:52;0.55;;;0.28;;
73113;SDS011;61301;51.956;5.876;2023-07-20T13:52:18;0.93;;;0.40;;
73113;SDS011;61301;51.956;5.876;2023-07-20T13:54:44;0.63;;;0.30;;
73113;SDS011;61301;51.956;5.876;2023-07-20T13:57:10;0.80;;;0.30;;
73113;SDS011;61301;51.956;5.876;2023-07-20T13:59:36;1.02;;;0.25;;
73113;SDS011;61301;51.956;5.876;2023-07-20T14:02:02;0.38;;;0.30;;
73113;SDS011;61301;51.956;5.876;2023-07-20T14:04:29;1.40;;;0.50;;
73113;SDS011;61301;51.956;5.876;2023-07-20T14:06:56;0.70;;;0.30;;
73113;SDS011;61301;51.956;5.876;2023-07-20T14:09:22;1.27;;;0.38;;
73113;SDS011;61301;51.956;5.876;2023-07-20T14:11:48;0.77;;;0.30;;
73113;SDS011;61301;51.956;5.876;2023-07-20T14:14:14;0.32;;;0.30;;
73113;SDS011;61301;51.956;5.876;2023-07-20T14:16:40;1.90;;;0.35;;
73113;SDS011;61301;51.956;5.876;2023-07-20T14:19:06;0.60;;;0.30;;
73113;SDS011;61301;51.956;5.876;2023-07-20T14:21:33;0.38;;;0.20;;
73113;SDS011;61301;51.956;5.876;2023-07-20T14:23:59;0.52;;;0.38;;
73113;SDS011;61301;51.956;5.876;2023-07-20T14:26:25;0.95;;;0.40;;
73113;SDS011;61301;51.956;5.876;2023-07-20T14:28:51;2.65;;;0.50;;
73113;SDS011;61301;51.956;5.876;2023-07-20T14:31:17;0.32;;;0.30;;
73113;SDS011;61301;51.956;5.876;2023-07-20T14:33:44;0.68;;;0.30;;
73113;SDS011;61301;51.956;5.876;2023-07-20T14:36:10;0.63;;;0.35;;
73113;SDS011;61301;51.956;5.876;2023-07-20T14:38:36;0.10;;;0.10;;
73113;SDS011;61301;51.956;5.876;2023-07-20T14:41:03;3.78;;;0.38;;
73113;SDS011;61301;51.956;5.876;2023-07-20T14:43:31;0.57;;;0.30;;
73113;SDS011;61301;51.956;5.876;2023-07-20T14:45:57;0.43;;;0.25;;
73113;SDS011;61301;51.956;5.876;2023-07-20T14:48:23;0.75;;;0.30;;
73113;SDS011;61301;51.956;5.876;2023-07-20T14:50:49;0.43;;;0.30;;
73113;SDS011;61301;51.956;5.876;2023-07-20T14:53:15;0.85;;;0.20;;
73113;SDS011;61301;51.956;5.876;2023-07-20T14:55:42;0.35;;;0.22;;
73113;SDS011;61301;51.956;5.876;2023-07-20T14:58:08;1.05;;;0.50;;
73113;SDS011;61301;51.956;5.876;2023-07-20T15:00:34;0.70;;;0.22;;
73113;SDS011;61301;51.956;5.876;2023-07-20T15:03:00;0.85;;;0.40;;
73113;SDS011;61301;51.956;5.876;2023-07-20T15:05:26;0.90;;;0.40;;
73113;SDS011;61301;51.956;5.876;2023-07-20T15:07:52;0.57;;;0.20;;
73113;SDS011;61301;51.956;5.876;2023-07-20T15:10:19;0.70;;;0.43;;